Aérodrome :
LOGIN :

S'inscrire | Disclaimer

   EN    FR    IT 

 










Légende :    VFR   VFR Marginal   IFR   IFR Intensif   IFR Très Intensif
Visi : 
Plafond : 
>= 8 km
>= 3000ft
5 à 8 km
1000 à 3000 ft
1500m à 5 km
500 à 1000 ft
800 à 1500m
200 à 500 ft
< 800m
< 200 ft
Symboles :   Orages  Brouillard  Fortes neiges  Fortes précipitations  Vent > 20 kt
SIGMETs :   Divers  Orages  Givrage  Turbulence  Onde Orograph.  Cendres Volcan.






- Altitude de l'aérodrome : 126 ft
- Code IATA : WIC


EGPC - Wick

DERNIER METAR :
  • 142350Z AUTO 33009KT 9999 SCT040/// 03/02 Q1016

METARs EXPIRÉS :
  • 142320Z AUTO 34009KT 9999 NCD 04/02 Q1016
  • 142250Z AUTO 35011KT 9999 FEW024/// 04/03 Q1015
  • 142220Z AUTO 35012KT 9999 FEW020/// SCT032/// BKN039/// 05/03 Q1015
  • 142150Z AUTO 02019KT 9999 -RA FEW008/// SCT020/// BKN030/// 05/03 Q1015
  • 142120Z 36014KT 9999 -RA FEW016CB SCT025 BKN032 05/03 Q1015

TAF TAF EGPC
Valide du 15 à 00h jusqu'au 15 à 09h UTC


142257Z 1500/1509 02012KT 9999 SCT025
PROB40
TEMPO 1500/1509 02015G25KT 6000 SHRA BKN014
ATIS : +44 1955 607 596



MET'MAP, la Météo Aéronautique d'un coup d'oeil ! - Copyright ORBIFLY Décembre 2007 - Disclaimer

ORBIFLY MET'MAP TEAM :

Programmation & Développement : Alexandra Zaïnal
Conception & Développement : Baudouin d'Aumeries
Co-Programmation & Développement : Marc-Olivier Méhu
Soutien technique & logistique : Manuel Goepfert

Contact : metmap@orbifly.com




SOURCES & CREDITS :

   NOAA